sensor_id;sensor_type;location;lat;lon;timestamp;P1;durP1;ratioP1;P2;durP2;ratioP2
22861;SDS011;11598;50.652;6.172;2022-10-19T00:05:17;23.20;;;10.07;;
22861;SDS011;11598;50.652;6.172;2022-10-19T00:15:18;27.65;;;10.77;;
22861;SDS011;11598;50.652;6.172;2022-10-19T00:25:18;21.58;;;8.20;;
22861;SDS011;11598;50.652;6.172;2022-10-19T00:35:19;28.92;;;9.57;;
22861;SDS011;11598;50.652;6.172;2022-10-19T00:45:19;27.85;;;11.75;;
22861;SDS011;11598;50.652;6.172;2022-10-19T00:55:19;31.85;;;11.73;;
22861;SDS011;11598;50.652;6.172;2022-10-19T01:05:20;30.95;;;11.98;;
22861;SDS011;11598;50.652;6.172;2022-10-19T01:35:54;15.87;;;6.63;;
22861;SDS011;11598;50.652;6.172;2022-10-19T01:46:02;17.60;;;6.03;;
22861;SDS011;11598;50.652;6.172;2022-10-19T01:56:06;17.60;;;6.18;;
22861;SDS011;11598;50.652;6.172;2022-10-19T02:06:08;19.00;;;5.88;;
22861;SDS011;11598;50.652;6.172;2022-10-19T02:16:15;16.90;;;5.80;;
22861;SDS011;11598;50.652;6.172;2022-10-19T02:26:22;16.15;;;5.18;;
22861;SDS011;11598;50.652;6.172;2022-10-19T02:36:23;15.65;;;5.63;;
22861;SDS011;11598;50.652;6.172;2022-10-19T02:46:46;17.92;;;6.90;;
22861;SDS011;11598;50.652;6.172;2022-10-19T02:56:48;23.98;;;7.95;;
22861;SDS011;11598;50.652;6.172;2022-10-19T03:06:49;19.98;;;6.75;;
22861;SDS011;11598;50.652;6.172;2022-10-19T03:16:49;21.35;;;7.68;;
22861;SDS011;11598;50.652;6.172;2022-10-19T03:26:50;23.55;;;6.45;;
22861;SDS011;11598;50.652;6.172;2022-10-19T03:36:50;23.25;;;7.53;;
22861;SDS011;11598;50.652;6.172;2022-10-19T03:46:50;22.35;;;7.60;;
22861;SDS011;11598;50.652;6.172;2022-10-19T03:56:51;29.27;;;9.73;;
22861;SDS011;11598;50.652;6.172;2022-10-19T04:06:51;26.08;;;10.38;;
22861;SDS011;11598;50.652;6.172;2022-10-19T04:16:52;29.00;;;11.07;;
22861;SDS011;11598;50.652;6.172;2022-10-19T04:26:53;33.53;;;12.77;;
22861;SDS011;11598;50.652;6.172;2022-10-19T04:36:54;30.15;;;13.88;;
22861;SDS011;11598;50.652;6.172;2022-10-19T04:46:58;36.73;;;14.80;;
22861;SDS011;11598;50.652;6.172;2022-10-19T04:56:58;36.55;;;15.63;;
22861;SDS011;11598;50.652;6.172;2022-10-19T05:06:58;35.22;;;14.45;;
22861;SDS011;11598;50.652;6.172;2022-10-19T05:16:59;33.40;;;13.82;;
22861;SDS011;11598;50.652;6.172;2022-10-19T05:27:00;29.50;;;13.40;;
22861;SDS011;11598;50.652;6.172;2022-10-19T05:37:00;25.13;;;13.02;;
22861;SDS011;11598;50.652;6.172;2022-10-19T05:47:00;30.08;;;11.48;;
22861;SDS011;11598;50.652;6.172;2022-10-19T05:57:01;22.15;;;10.82;;
22861;SDS011;11598;50.652;6.172;2022-10-19T06:07:01;24.42;;;9.40;;
22861;SDS011;11598;50.652;6.172;2022-10-19T06:17:02;27.35;;;12.20;;
22861;SDS011;11598;50.652;6.172;2022-10-19T06:27:02;26.52;;;13.43;;
22861;SDS011;11598;50.652;6.172;2022-10-19T06:37:02;31.65;;;16.52;;
22861;SDS011;11598;50.652;6.172;2022-10-19T06:47:03;31.33;;;17.33;;
22861;SDS011;11598;50.652;6.172;2022-10-19T06:57:03;31.38;;;17.55;;
22861;SDS011;11598;50.652;6.172;2022-10-19T07:07:04;29.10;;;17.02;;
22861;SDS011;11598;50.652;6.172;2022-10-19T07:17:04;30.08;;;18.10;;
22861;SDS011;11598;50.652;6.172;2022-10-19T07:27:06;32.10;;;15.25;;
22861;SDS011;11598;50.652;6.172;2022-10-19T07:37:06;25.85;;;14.48;;
22861;SDS011;11598;50.652;6.172;2022-10-19T07:47:06;26.33;;;13.90;;
22861;SDS011;11598;50.652;6.172;2022-10-19T07:57:07;24.73;;;13.27;;
22861;SDS011;11598;50.652;6.172;2022-10-19T08:07:10;22.43;;;13.17;;
22861;SDS011;11598;50.652;6.172;2022-10-19T08:17:11;22.15;;;13.50;;
22861;SDS011;11598;50.652;6.172;2022-10-19T08:27:15;20.75;;;12.65;;
22861;SDS011;11598;50.652;6.172;2022-10-19T08:37:15;21.10;;;11.57;;
22861;SDS011;11598;50.652;6.172;2022-10-19T08:58:23;19.10;;;10.70;;
22861;SDS011;11598;50.652;6.172;2022-10-19T09:08:45;21.13;;;10.43;;
22861;SDS011;11598;50.652;6.172;2022-10-19T09:18:47;20.60;;;10.63;;
22861;SDS011;11598;50.652;6.172;2022-10-19T09:28:52;21.52;;;10.35;;
22861;SDS011;11598;50.652;6.172;2022-10-19T09:38:57;20.30;;;10.90;;
22861;SDS011;11598;50.652;6.172;2022-10-19T09:48:58;18.15;;;9.75;;
22861;SDS011;11598;50.652;6.172;2022-10-19T09:59:00;15.48;;;9.30;;
22861;SDS011;11598;50.652;6.172;2022-10-19T10:09:00;15.80;;;9.07;;
22861;SDS011;11598;50.652;6.172;2022-10-19T10:19:03;24.42;;;10.63;;
22861;SDS011;11598;50.652;6.172;2022-10-19T10:29:20;19.33;;;11.45;;
22861;SDS011;11598;50.652;6.172;2022-10-19T10:39:27;16.88;;;10.43;;
22861;SDS011;11598;50.652;6.172;2022-10-19T10:49:31;16.27;;;10.63;;
22861;SDS011;11598;50.652;6.172;2022-10-19T10:59:36;14.90;;;9.73;;
22861;SDS011;11598;50.652;6.172;2022-10-19T11:09:50;12.18;;;8.32;;
22861;SDS011;11598;50.652;6.172;2022-10-19T11:19:53;10.82;;;7.15;;
22861;SDS011;11598;50.652;6.172;2022-10-19T12:21:31;10.40;;;6.40;;
22861;SDS011;11598;50.652;6.172;2022-10-19T12:31:34;10.20;;;6.20;;
22861;SDS011;11598;50.652;6.172;2022-10-19T12:51:51;14.88;;;8.43;;
22861;SDS011;11598;50.652;6.172;2022-10-19T13:01:56;13.57;;;7.63;;
22861;SDS011;11598;50.652;6.172;2022-10-19T13:22:24;12.70;;;7.22;;
22861;SDS011;11598;50.652;6.172;2022-10-19T13:32:40;11.10;;;6.10;;
22861;SDS011;11598;50.652;6.172;2022-10-19T13:42:44;11.93;;;6.78;;
22861;SDS011;11598;50.652;6.172;2022-10-19T14:03:29;12.38;;;8.05;;
22861;SDS011;11598;50.652;6.172;2022-10-19T14:14:09;14.52;;;7.35;;
22861;SDS011;11598;50.652;6.172;2022-10-19T14:24:19;11.02;;;6.20;;
22861;SDS011;11598;50.652;6.172;2022-10-19T14:34:20;10.35;;;5.78;;
22861;SDS011;11598;50.652;6.172;2022-10-19T14:44:30;10.35;;;6.22;;
22861;SDS011;11598;50.652;6.172;2022-10-19T14:54:38;9.82;;;5.90;;
22861;SDS011;11598;50.652;6.172;2022-10-19T15:04:41;13.15;;;6.97;;
22861;SDS011;11598;50.652;6.172;2022-10-19T15:14:42;12.40;;;7.63;;
22861;SDS011;11598;50.652;6.172;2022-10-19T15:35:09;13.25;;;7.82;;
22861;SDS011;11598;50.652;6.172;2022-10-19T15:55:35;15.50;;;8.90;;
22861;SDS011;11598;50.652;6.172;2022-10-19T16:05:36;12.80;;;8.07;;
22861;SDS011;11598;50.652;6.172;2022-10-19T16:15:36;15.00;;;9.40;;
22861;SDS011;11598;50.652;6.172;2022-10-19T16:25:37;17.65;;;9.75;;
22861;SDS011;11598;50.652;6.172;2022-10-19T16:35:37;16.73;;;9.63;;
22861;SDS011;11598;50.652;6.172;2022-10-19T16:45:41;15.88;;;11.10;;
22861;SDS011;11598;50.652;6.172;2022-10-19T16:55:42;20.02;;;12.45;;
22861;SDS011;11598;50.652;6.172;2022-10-19T17:05:42;21.10;;;12.93;;
22861;SDS011;11598;50.652;6.172;2022-10-19T17:15:42;19.10;;;12.43;;
22861;SDS011;11598;50.652;6.172;2022-10-19T17:25:46;22.80;;;12.13;;
22861;SDS011;11598;50.652;6.172;2022-10-19T17:45:47;19.58;;;11.73;;
22861;SDS011;11598;50.652;6.172;2022-10-19T17:56:00;20.55;;;11.60;;
22861;SDS011;11598;50.652;6.172;2022-10-19T18:16:03;19.90;;;12.68;;
22861;SDS011;11598;50.652;6.172;2022-10-19T18:26:07;17.50;;;12.53;;
22861;SDS011;11598;50.652;6.172;2022-10-19T18:36:12;20.90;;;13.30;;
22861;SDS011;11598;50.652;6.172;2022-10-19T18:46:13;20.50;;;11.70;;
22861;SDS011;11598;50.652;6.172;2022-10-19T18:56:16;20.45;;;10.38;;
22861;SDS011;11598;50.652;6.172;2022-10-19T19:06:22;22.40;;;11.70;;
22861;SDS011;11598;50.652;6.172;2022-10-19T19:16:25;21.92;;;11.18;;
22861;SDS011;11598;50.652;6.172;2022-10-19T19:26:27;16.98;;;11.50;;
22861;SDS011;11598;50.652;6.172;2022-10-19T19:36:30;15.70;;;11.05;;
22861;SDS011;11598;50.652;6.172;2022-10-19T19:46:31;22.73;;;12.65;;
22861;SDS011;11598;50.652;6.172;2022-10-19T19:56:31;19.58;;;12.40;;
22861;SDS011;11598;50.652;6.172;2022-10-19T20:06:32;21.00;;;13.15;;
22861;SDS011;11598;50.652;6.172;2022-10-19T20:16:33;23.88;;;14.85;;
22861;SDS011;11598;50.652;6.172;2022-10-19T20:26:34;24.17;;;15.48;;
22861;SDS011;11598;50.652;6.172;2022-10-19T20:36:35;20.17;;;13.53;;
22861;SDS011;11598;50.652;6.172;2022-10-19T20:46:35;21.45;;;13.43;;
22861;SDS011;11598;50.652;6.172;2022-10-19T20:56:36;20.15;;;12.98;;
22861;SDS011;11598;50.652;6.172;2022-10-19T21:06:38;20.95;;;11.90;;
22861;SDS011;11598;50.652;6.172;2022-10-19T21:16:43;17.98;;;10.18;;
22861;SDS011;11598;50.652;6.172;2022-10-19T21:26:44;16.75;;;9.30;;
22861;SDS011;11598;50.652;6.172;2022-10-19T21:36:44;15.25;;;10.45;;
22861;SDS011;11598;50.652;6.172;2022-10-19T21:46:48;14.65;;;10.13;;
22861;SDS011;11598;50.652;6.172;2022-10-19T21:56:49;16.52;;;10.43;;
22861;SDS011;11598;50.652;6.172;2022-10-19T22:06:49;16.70;;;9.63;;
22861;SDS011;11598;50.652;6.172;2022-10-19T22:16:50;15.88;;;9.95;;
22861;SDS011;11598;50.652;6.172;2022-10-19T22:26:50;15.35;;;9.27;;
22861;SDS011;11598;50.652;6.172;2022-10-19T22:36:51;18.75;;;10.38;;
22861;SDS011;11598;50.652;6.172;2022-10-19T22:46:51;15.60;;;10.45;;
22861;SDS011;11598;50.652;6.172;2022-10-19T22:56:51;15.65;;;10.23;;
22861;SDS011;11598;50.652;6.172;2022-10-19T23:06:52;16.13;;;10.65;;
22861;SDS011;11598;50.652;6.172;2022-10-19T23:16:52;15.82;;;10.10;;
22861;SDS011;11598;50.652;6.172;2022-10-19T23:26:53;17.40;;;10.00;;
22861;SDS011;11598;50.652;6.172;2022-10-19T23:36:53;19.30;;;10.65;;
22861;SDS011;11598;50.652;6.172;2022-10-19T23:46:53;15.10;;;8.75;;
22861;SDS011;11598;50.652;6.172;2022-10-19T23:56:54;13.75;;;9.18;;
